createdAt,value
2022-09-03T00:01:29.751Z,11.30
2022-09-03T00:06:38.770Z,11.40
2022-09-03T00:12:22.379Z,11.40
2022-09-03T00:17:36.321Z,11.50
2022-09-03T00:22:46.978Z,11.50
2022-09-03T00:27:55.764Z,11.50
2022-09-03T00:33:07.277Z,11.40
2022-09-03T00:38:10.110Z,11.20
2022-09-03T00:43:23.260Z,11.10
2022-09-03T00:48:31.790Z,11.10
2022-09-03T00:54:03.504Z,11.10
2022-09-03T00:59:19.190Z,10.90
2022-09-03T01:04:25.299Z,10.80
2022-09-03T01:09:49.778Z,10.70
2022-09-03T01:15:27.878Z,10.60
2022-09-03T01:20:36.894Z,10.40
2022-09-03T01:25:52.970Z,10.40
2022-09-03T01:31:04.236Z,10.30
2022-09-03T01:36:16.343Z,10.20
2022-09-03T01:41:56.323Z,10.20
2022-09-03T01:47:11.805Z,10.30
2022-09-03T01:52:45.094Z,10.30
2022-09-03T01:57:51.328Z,10.20
2022-09-03T02:02:54.876Z,10.30
2022-09-03T02:07:58.034Z,10.10
2022-09-03T02:13:28.881Z,10.10
2022-09-03T02:18:37.643Z,9.90
2022-09-03T02:23:41.717Z,9.90
2022-09-03T02:28:45.171Z,9.70
2022-09-03T02:33:49.573Z,9.70
2022-09-03T02:38:52.328Z,9.60
2022-09-03T02:44:16.804Z,9.50
2022-09-03T02:49:19.588Z,9.40
2022-09-03T02:54:22.354Z,9.20
2022-09-03T02:59:25.234Z,9.00
2022-09-03T03:04:28.134Z,8.90
2022-09-03T03:09:31.016Z,8.70
2022-09-03T03:14:33.811Z,8.60
2022-09-03T03:19:36.595Z,8.50
2022-09-03T03:24:39.443Z,8.50
2022-09-03T03:29:42.180Z,8.40
2022-09-03T03:34:44.899Z,8.30
2022-09-03T03:39:47.590Z,8.40
2022-09-03T03:44:50.358Z,8.40
2022-09-03T03:49:53.093Z,8.40
2022-09-03T03:54:56.890Z,8.50
2022-09-03T03:59:59.619Z,8.50
2022-09-03T04:05:02.355Z,8.60
2022-09-03T04:10:05.763Z,8.80
2022-09-03T04:15:08.839Z,8.80
2022-09-03T04:20:11.607Z,9.00
2022-09-03T04:25:15.852Z,9.10
2022-09-03T04:30:19.233Z,9.30
2022-09-03T04:35:25.864Z,9.40
2022-09-03T04:40:29.259Z,9.60
2022-09-03T04:45:32.621Z,9.70
2022-09-03T04:50:35.928Z,9.80
2022-09-03T04:55:39.513Z,10.10
2022-09-03T05:00:42.402Z,10.20
2022-09-03T05:05:56.369Z,10.40
2022-09-03T05:11:00.778Z,10.70
2022-09-03T05:16:06.730Z,10.90
2022-09-03T05:21:15.326Z,11.20
2022-09-03T05:26:21.098Z,11.40
2022-09-03T05:31:26.835Z,11.60
2022-09-03T05:36:35.543Z,11.70
2022-09-03T05:41:38.597Z,12.00
2022-09-03T05:46:41.448Z,12.00
2022-09-03T05:51:45.019Z,12.10
2022-09-03T05:56:47.939Z,12.20
2022-09-03T06:01:53.003Z,12.30
2022-09-03T06:06:58.557Z,12.30
2022-09-03T06:12:04.011Z,12.30
2022-09-03T06:17:11.511Z,12.40
2022-09-03T06:22:14.414Z,12.60
2022-09-03T06:27:17.390Z,12.80
2022-09-03T06:32:20.481Z,12.90
2022-09-03T06:37:23.492Z,13.20
2022-09-03T06:42:26.649Z,13.30
2022-09-03T06:47:29.841Z,13.60
2022-09-03T06:52:32.628Z,13.50
2022-09-03T06:57:35.397Z,13.80
2022-09-03T07:02:42.835Z,14.00
2022-09-03T07:07:47.650Z,13.90
2022-09-03T07:12:50.667Z,14.00
2022-09-03T07:17:53.458Z,14.20
2022-09-03T07:22:57.436Z,14.50
2022-09-03T07:28:00.399Z,14.60
2022-09-03T07:33:04.861Z,14.70
2022-09-03T07:38:08.358Z,15.10
2022-09-03T07:43:11.260Z,15.50
2022-09-03T07:48:14.140Z,15.50
2022-09-03T07:53:17.608Z,15.60
2022-09-03T07:58:25.384Z,15.50
2022-09-03T08:03:28.313Z,15.50
2022-09-03T08:08:35.515Z,16.30
2022-09-03T08:13:44.787Z,16.10
2022-09-03T08:18:48.190Z,16.10
2022-09-03T08:23:53.498Z,16.50
2022-09-03T08:28:56.231Z,16.90
2022-09-03T08:34:01.707Z,16.80
2022-09-03T08:39:10.502Z,16.80
2022-09-03T08:44:34.999Z,16.80
2022-09-03T08:49:59.069Z,16.70
2022-09-03T08:55:43.580Z,16.60
2022-09-03T09:01:01.929Z,16.80
2022-09-03T09:06:10.607Z,16.80
2022-09-03T09:11:34.689Z,17.40
2022-09-03T09:17:00.360Z,17.10
2022-09-03T09:22:19.699Z,17.20
2022-09-03T09:27:23.450Z,17.30
2022-09-03T09:32:26.279Z,17.40
2022-09-03T09:37:29.355Z,17.10
2022-09-03T09:42:32.226Z,16.80
2022-09-03T09:47:40.280Z,17.10
2022-09-03T09:52:44.268Z,18.30
2022-09-03T09:57:54.386Z,18.30
2022-09-03T10:02:57.426Z,18.30
2022-09-03T10:08:22.450Z,18.00
2022-09-03T10:13:40.761Z,17.60
2022-09-03T10:18:45.281Z,18.40
2022-09-03T10:24:08.698Z,18.10
2022-09-03T10:29:12.548Z,18.00
2022-09-03T10:34:47.987Z,17.80
2022-09-03T10:40:12.442Z,17.50
2022-09-03T10:45:33.375Z,17.40
2022-09-03T10:50:58.597Z,17.30
2022-09-03T10:56:13.337Z,17.00
2022-09-03T11:01:34.382Z,17.20
2022-09-03T11:07:01.728Z,17.40
2022-09-03T11:12:20.790Z,17.80
2022-09-03T11:17:28.881Z,18.00
2022-09-03T11:22:36.289Z,18.20
2022-09-03T11:27:42.081Z,18.20
2022-09-03T11:32:55.908Z,18.90
2022-09-03T11:38:04.777Z,20.00
2022-09-03T11:43:25.118Z,20.10
2022-09-03T11:48:34.015Z,20.40
2022-09-03T11:53:37.687Z,21.80
2022-09-03T11:58:43.747Z,23.30
2022-09-03T12:03:54.578Z,23.10
2022-09-03T12:09:02.968Z,23.90
2022-09-03T12:14:20.923Z,22.10
2022-09-03T12:19:40.819Z,22.50
2022-09-03T12:24:45.331Z,22.60
2022-09-03T12:30:00.979Z,22.60
2022-09-03T12:46:15.438Z,22.40
2022-09-03T12:56:43.339Z,22.00
2022-09-03T13:01:56.444Z,22.00
2022-09-03T13:07:13.141Z,22.50
2022-09-03T13:12:33.330Z,22.60
2022-09-03T13:17:54.380Z,22.70
2022-09-03T13:23:15.939Z,21.90
2022-09-03T13:28:33.409Z,21.10
2022-09-03T13:33:44.944Z,21.60
2022-09-03T13:39:07.000Z,21.20
2022-09-03T13:44:36.079Z,20.60
2022-09-03T13:50:06.571Z,20.40
2022-09-03T13:55:16.542Z,20.60
2022-09-03T14:00:38.965Z,19.70
2022-09-03T14:05:47.909Z,19.60
2022-09-03T14:11:19.620Z,19.90
2022-09-03T14:16:47.453Z,19.50
2022-09-03T14:22:07.319Z,19.20
2022-09-03T14:27:10.885Z,19.60
2022-09-03T14:32:24.693Z,19.20
2022-09-03T14:37:45.604Z,19.30
2022-09-03T14:43:18.850Z,19.20
2022-09-03T14:48:44.373Z,19.10
2022-09-03T14:54:01.991Z,19.00
2022-09-03T14:59:19.224Z,18.80
2022-09-03T15:04:47.071Z,18.60
2022-09-03T15:10:13.186Z,18.50
2022-09-03T15:15:30.542Z,18.70
2022-09-03T15:20:48.592Z,18.60
2022-09-03T15:26:38.272Z,18.30
2022-09-03T15:31:59.543Z,18.20
2022-09-03T15:37:10.522Z,18.10
2022-09-03T15:42:28.190Z,18.00
2022-09-03T15:47:51.174Z,18.10
2022-09-03T15:53:05.282Z,18.00
2022-09-03T15:58:34.580Z,17.90
2022-09-03T16:03:56.459Z,17.70
2022-09-03T16:09:10.264Z,17.70
2022-09-03T16:14:42.091Z,17.70
2022-09-03T16:20:02.103Z,17.60
2022-09-03T16:25:18.053Z,18.00
2022-09-03T16:30:39.766Z,18.20
2022-09-03T16:36:15.052Z,18.50
2022-09-03T16:41:30.181Z,18.40
2022-09-03T16:46:51.520Z,18.40
2022-09-03T16:52:16.425Z,18.20
2022-09-03T16:57:44.560Z,18.00
2022-09-03T17:03:26.145Z,17.70
2022-09-03T17:09:08.321Z,17.70
2022-09-03T17:14:33.981Z,17.50
2022-09-03T17:19:55.822Z,17.40
2022-09-03T17:25:07.558Z,17.10
2022-09-03T17:30:51.370Z,16.90
2022-09-03T17:36:26.412Z,16.70
2022-09-03T17:41:36.565Z,16.40
2022-09-03T17:47:11.440Z,16.30
2022-09-03T17:52:37.550Z,16.20
2022-09-03T17:58:13.130Z,16.10
2022-09-03T18:03:28.032Z,16.00
2022-09-03T18:08:47.473Z,15.90
2022-09-03T18:14:15.702Z,15.70
2022-09-03T18:19:30.342Z,15.50
2022-09-03T18:25:02.454Z,15.40
2022-09-03T18:30:29.861Z,15.30
2022-09-03T18:35:51.988Z,15.20
2022-09-03T18:41:27.924Z,15.00
2022-09-03T18:53:01.063Z,14.50
2022-09-03T18:58:45.073Z,14.60
2022-09-03T19:04:30.864Z,14.40
2022-09-03T19:10:33.520Z,14.40
2022-09-03T19:16:31.240Z,14.30
2022-09-03T19:22:04.770Z,14.30
2022-09-03T19:27:59.909Z,14.20
2022-09-03T19:33:39.630Z,14.10
2022-09-03T19:39:10.130Z,14.00
2022-09-03T19:44:33.590Z,13.80
2022-09-03T19:50:16.740Z,13.70
2022-09-03T19:55:45.180Z,13.70
2022-09-03T20:01:06.849Z,13.40
2022-09-03T20:06:28.689Z,13.40
2022-09-03T20:11:31.959Z,13.50
2022-09-03T20:16:44.559Z,13.40
2022-09-03T20:22:01.129Z,13.40
2022-09-03T20:27:28.061Z,13.40
2022-09-03T20:32:55.170Z,13.30
2022-09-03T20:38:03.351Z,13.20
2022-09-03T20:43:19.960Z,13.00
2022-09-03T20:48:49.601Z,12.90
2022-09-03T20:54:09.003Z,12.90
2022-09-03T20:59:17.531Z,12.90
2022-09-03T21:04:30.460Z,12.90
2022-09-03T21:09:53.162Z,12.90
2022-09-03T21:15:05.410Z,12.80
2022-09-03T21:20:23.230Z,12.50
2022-09-03T21:25:33.662Z,12.80
2022-09-03T21:30:40.994Z,12.70
2022-09-03T21:35:49.868Z,12.70
2022-09-03T21:40:55.540Z,12.70
2022-09-03T21:46:09.793Z,12.70
2022-09-03T21:51:33.741Z,12.80
2022-09-03T21:57:02.484Z,12.90
2022-09-03T22:02:21.137Z,12.90
2022-09-03T22:07:36.861Z,12.80
2022-09-03T22:13:01.132Z,12.80
2022-09-03T22:18:10.632Z,12.80
2022-09-03T22:23:21.484Z,12.70
2022-09-03T22:29:02.554Z,12.60
2022-09-03T22:34:08.372Z,12.50
2022-09-03T22:39:37.769Z,12.40
2022-09-03T22:44:57.565Z,12.40
2022-09-03T22:50:41.832Z,12.30
2022-09-03T22:55:59.095Z,12.20
2022-09-03T23:01:31.837Z,12.10
2022-09-03T23:06:38.739Z,12.00
2022-09-03T23:11:47.819Z,12.00
2022-09-03T23:16:56.298Z,12.00
2022-09-03T23:22:06.834Z,11.90
2022-09-03T23:27:18.405Z,11.80
2022-09-03T23:32:21.676Z,11.70
2022-09-03T23:37:56.778Z,11.70
2022-09-03T23:43:37.707Z,11.70
2022-09-03T23:49:02.749Z,11.70
2022-09-03T23:54:12.081Z,11.80
2022-09-03T23:59:21.092Z,11.80
